sensor_id;sensor_type;location;lat;lon;timestamp;pressure;altitude;pressure_sealevel;temperature;humidity
42385;BME280;28042;43.986;22.860;2023-05-22T00:00:29;101137.22;;;15.15;100.00
42385;BME280;28042;43.986;22.860;2023-05-22T00:02:56;101142.28;;;15.18;100.00
42385;BME280;28042;43.986;22.860;2023-05-22T00:05:21;101140.13;;;15.20;100.00
42385;BME280;28042;43.986;22.860;2023-05-22T00:07:47;101145.63;;;15.20;100.00
42385;BME280;28042;43.986;22.860;2023-05-22T00:10:12;101142.34;;;15.05;100.00
42385;BME280;28042;43.986;22.860;2023-05-22T00:12:37;101146.63;;;14.87;100.00
42385;BME280;28042;43.986;22.860;2023-05-22T00:15:03;101132.72;;;14.69;100.00
42385;BME280;28042;43.986;22.860;2023-05-22T00:17:28;101137.78;;;14.65;100.00
42385;BME280;28042;43.986;22.860;2023-05-22T00:19:55;101147.50;;;14.61;100.00
42385;BME280;28042;43.986;22.860;2023-05-22T00:22:20;101135.69;;;14.61;100.00
42385;BME280;28042;43.986;22.860;2023-05-22T00:24:45;101131.44;;;14.65;100.00
42385;BME280;28042;43.986;22.860;2023-05-22T00:27:11;101128.91;;;14.57;100.00
42385;BME280;28042;43.986;22.860;2023-05-22T00:29:36;101136.75;;;14.53;100.00
42385;BME280;28042;43.986;22.860;2023-05-22T00:32:02;101141.41;;;14.53;100.00
42385;BME280;28042;43.986;22.860;2023-05-22T00:34:27;101152.16;;;14.48;100.00
42385;BME280;28042;43.986;22.860;2023-05-22T00:36:53;101151.28;;;14.40;100.00
42385;BME280;28042;43.986;22.860;2023-05-22T00:39:18;101150.03;;;14.30;100.00
42385;BME280;28042;43.986;22.860;2023-05-22T00:41:43;101141.97;;;14.41;100.00
42385;BME280;28042;43.986;22.860;2023-05-22T00:44:09;101143.25;;;14.59;100.00
42385;BME280;28042;43.986;22.860;2023-05-22T00:46:35;101137.38;;;14.68;100.00
42385;BME280;28042;43.986;22.860;2023-05-22T00:49:02;101139.00;;;14.76;100.00
42385;BME280;28042;43.986;22.860;2023-05-22T00:51:27;101126.16;;;14.70;100.00
42385;BME280;28042;43.986;22.860;2023-05-22T00:53:53;101128.91;;;14.63;100.00
42385;BME280;28042;43.986;22.860;2023-05-22T00:56:18;101137.38;;;14.62;100.00
42385;BME280;28042;43.986;22.860;2023-05-22T00:58:45;101134.00;;;14.60;100.00
42385;BME280;28042;43.986;22.860;2023-05-22T01:01:10;101133.78;;;14.55;100.00
42385;BME280;28042;43.986;22.860;2023-05-22T01:03:40;101137.16;;;14.57;100.00
42385;BME280;28042;43.986;22.860;2023-05-22T01:06:10;101142.41;;;14.65;100.00
42385;BME280;28042;43.986;22.860;2023-05-22T01:08:35;101136.50;;;14.68;100.00
42385;BME280;28042;43.986;22.860;2023-05-22T01:11:04;101135.84;;;14.79;100.00
42385;BME280;28042;43.986;22.860;2023-05-22T01:16:12;101140.47;;;14.85;100.00
42385;BME280;28042;43.986;22.860;2023-05-22T01:21:12;101132.00;;;14.93;100.00
42385;BME280;28042;43.986;22.860;2023-05-22T01:31:24;101122.97;;;14.73;100.00
42385;BME280;28042;43.986;22.860;2023-05-22T01:33:50;101123.19;;;14.78;100.00
42385;BME280;28042;43.986;22.860;2023-05-22T01:36:17;101127.84;;;14.78;100.00
42385;BME280;28042;43.986;22.860;2023-05-22T01:38:46;101136.94;;;14.58;100.00
42385;BME280;28042;43.986;22.860;2023-05-22T01:41:12;101122.59;;;14.63;100.00
42385;BME280;28042;43.986;22.860;2023-05-22T01:43:38;101119.16;;;14.74;100.00
42385;BME280;28042;43.986;22.860;2023-05-22T01:46:03;101110.28;;;14.79;100.00
42385;BME280;28042;43.986;22.860;2023-05-22T01:48:29;101106.88;;;14.83;100.00
42385;BME280;28042;43.986;22.860;2023-05-22T01:50:55;101107.50;;;14.92;100.00
42385;BME280;28042;43.986;22.860;2023-05-22T01:55:57;101110.00;;;15.00;100.00
42385;BME280;28042;43.986;22.860;2023-05-22T02:01:01;101114.03;;;14.97;100.00
42385;BME280;28042;43.986;22.860;2023-05-22T02:03:29;101106.63;;;15.05;100.00
42385;BME280;28042;43.986;22.860;2023-05-22T02:05:54;101115.69;;;15.05;100.00
42385;BME280;28042;43.986;22.860;2023-05-22T02:08:24;101113.19;;;14.97;100.00
42385;BME280;28042;43.986;22.860;2023-05-22T02:10:51;101114.88;;;14.91;100.00
42385;BME280;28042;43.986;22.860;2023-05-22T02:13:18;101112.75;;;14.93;100.00
42385;BME280;28042;43.986;22.860;2023-05-22T02:15:45;101108.34;;;14.92;100.00
42385;BME280;28042;43.986;22.860;2023-05-22T02:18:11;101111.97;;;14.86;100.00
42385;BME280;28042;43.986;22.860;2023-05-22T02:20:39;101101.84;;;14.80;100.00
42385;BME280;28042;43.986;22.860;2023-05-22T02:23:05;101100.38;;;14.71;100.00
42385;BME280;28042;43.986;22.860;2023-05-22T02:25:30;101101.69;;;14.55;100.00
42385;BME280;28042;43.986;22.860;2023-05-22T02:27:56;101111.78;;;14.41;100.00
42385;BME280;28042;43.986;22.860;2023-05-22T02:30:21;101116.28;;;14.16;100.00
42385;BME280;28042;43.986;22.860;2023-05-22T02:32:46;101124.06;;;14.06;100.00
42385;BME280;28042;43.986;22.860;2023-05-22T02:35:12;101125.53;;;14.02;100.00
42385;BME280;28042;43.986;22.860;2023-05-22T02:37:37;101126.38;;;13.96;100.00
42385;BME280;28042;43.986;22.860;2023-05-22T02:40:03;101124.69;;;14.01;100.00
42385;BME280;28042;43.986;22.860;2023-05-22T02:42:30;101118.78;;;14.11;100.00
42385;BME280;28042;43.986;22.860;2023-05-22T02:44:55;101117.31;;;14.22;100.00
42385;BME280;28042;43.986;22.860;2023-05-22T02:47:21;101117.53;;;14.20;100.00
42385;BME280;28042;43.986;22.860;2023-05-22T02:49:46;101121.31;;;14.19;100.00
42385;BME280;28042;43.986;22.860;2023-05-22T02:52:11;101115.84;;;14.19;100.00
42385;BME280;28042;43.986;22.860;2023-05-22T02:54:37;101125.97;;;14.12;100.00
42385;BME280;28042;43.986;22.860;2023-05-22T02:57:02;101126.38;;;14.02;100.00
42385;BME280;28042;43.986;22.860;2023-05-22T02:59:28;101123.88;;;14.07;100.00
42385;BME280;28042;43.986;22.860;2023-05-22T03:01:53;101129.34;;;14.14;100.00
42385;BME280;28042;43.986;22.860;2023-05-22T03:04:19;101128.06;;;14.03;100.00
42385;BME280;28042;43.986;22.860;2023-05-22T03:06:44;101125.09;;;14.05;100.00
42385;BME280;28042;43.986;22.860;2023-05-22T03:09:10;101121.53;;;14.11;100.00
42385;BME280;28042;43.986;22.860;2023-05-22T03:11:35;101126.81;;;14.19;100.00
42385;BME280;28042;43.986;22.860;2023-05-22T03:14:01;101122.38;;;14.18;100.00
42385;BME280;28042;43.986;22.860;2023-05-22T03:16:26;101119.63;;;14.18;100.00
42385;BME280;28042;43.986;22.860;2023-05-22T03:19:05;101116.28;;;14.16;100.00
42385;BME280;28042;43.986;22.860;2023-05-22T03:21:31;101117.13;;;14.17;100.00
42385;BME280;28042;43.986;22.860;2023-05-22T03:23:56;101124.28;;;14.11;100.00
42385;BME280;28042;43.986;22.860;2023-05-22T03:26:21;101118.56;;;14.12;100.00
42385;BME280;28042;43.986;22.860;2023-05-22T03:28:47;101119.63;;;14.18;100.00
42385;BME280;28042;43.986;22.860;2023-05-22T03:31:12;101115.41;;;14.22;100.00
42385;BME280;28042;43.986;22.860;2023-05-22T03:33:37;101116.03;;;14.24;100.00
42385;BME280;28042;43.986;22.860;2023-05-22T03:36:03;101125.97;;;14.25;100.00
42385;BME280;28042;43.986;22.860;2023-05-22T03:38:28;101127.66;;;14.26;100.00
42385;BME280;28042;43.986;22.860;2023-05-22T03:40:53;101129.75;;;14.24;100.00
42385;BME280;28042;43.986;22.860;2023-05-22T03:43:19;101125.13;;;14.25;100.00
42385;BME280;28042;43.986;22.860;2023-05-22T03:45:44;101132.28;;;14.32;100.00
42385;BME280;28042;43.986;22.860;2023-05-22T03:48:10;101130.19;;;14.34;100.00
42385;BME280;28042;43.986;22.860;2023-05-22T03:50:36;101120.91;;;14.35;100.00
42385;BME280;28042;43.986;22.860;2023-05-22T03:53:01;101124.06;;;14.39;100.00
42385;BME280;28042;43.986;22.860;2023-05-22T03:55:27;101136.50;;;14.41;100.00
42385;BME280;28042;43.986;22.860;2023-05-22T03:57:54;101134.00;;;14.47;100.00
42385;BME280;28042;43.986;22.860;2023-05-22T04:00:20;101132.72;;;14.49;100.00
42385;BME280;28042;43.986;22.860;2023-05-22T04:02:45;101132.28;;;14.59;100.00
42385;BME280;28042;43.986;22.860;2023-05-22T04:05:11;101132.72;;;14.69;100.00
42385;BME280;28042;43.986;22.860;2023-05-22T04:07:36;101143.03;;;14.80;100.00
42385;BME280;28042;43.986;22.860;2023-05-22T04:10:04;101146.78;;;14.92;100.00
42385;BME280;28042;43.986;22.860;2023-05-22T04:12:30;101143.19;;;14.98;100.00
42385;BME280;28042;43.986;22.860;2023-05-22T04:14:55;101138.31;;;15.07;100.00
42385;BME280;28042;43.986;22.860;2023-05-22T04:17:21;101137.19;;;15.21;100.00
42385;BME280;28042;43.986;22.860;2023-05-22T04:19:46;101139.91;;;15.28;100.00
42385;BME280;28042;43.986;22.860;2023-05-22T04:22:11;101130.19;;;15.25;100.00
42385;BME280;28042;43.986;22.860;2023-05-22T04:24:37;101124.44;;;15.34;100.00
42385;BME280;28042;43.986;22.860;2023-05-22T04:27:04;101135.75;;;15.64;100.00
42385;BME280;28042;43.986;22.860;2023-05-22T04:29:29;101120.47;;;16.24;100.00
42385;BME280;28042;43.986;22.860;2023-05-22T04:31:55;101106.56;;;16.62;100.00
42385;BME280;28042;43.986;22.860;2023-05-22T04:34:20;101109.38;;;16.99;100.00
42385;BME280;28042;43.986;22.860;2023-05-22T04:36:45;101099.22;;;17.48;100.00
42385;BME280;28042;43.986;22.860;2023-05-22T04:39:12;101097.34;;;18.02;100.00
42385;BME280;28042;43.986;22.860;2023-05-22T04:41:40;101087.88;;;18.33;100.00
42385;BME280;28042;43.986;22.860;2023-05-22T04:44:05;101101.22;;;18.83;100.00
42385;BME280;28042;43.986;22.860;2023-05-22T04:46:31;101098.59;;;19.28;100.00
42385;BME280;28042;43.986;22.860;2023-05-22T04:48:58;101092.28;;;19.44;100.00
42385;BME280;28042;43.986;22.860;2023-05-22T04:51:26;101098.31;;;19.98;100.00
42385;BME280;28042;43.986;22.860;2023-05-22T04:53:51;101104.84;;;19.92;100.00
42385;BME280;28042;43.986;22.860;2023-05-22T04:56:19;101101.22;;;19.92;100.00
42385;BME280;28042;43.986;22.860;2023-05-22T04:58:45;101093.84;;;20.14;100.00
42385;BME280;28042;43.986;22.860;2023-05-22T05:01:12;101079.09;;;20.81;100.00
42385;BME280;28042;43.986;22.860;2023-05-22T05:03:38;101085.72;;;21.02;95.61
42385;BME280;28042;43.986;22.860;2023-05-22T05:06:03;101082.34;;;21.38;90.36
42385;BME280;28042;43.986;22.860;2023-05-22T05:08:29;101074.22;;;21.86;86.59
42385;BME280;28042;43.986;22.860;2023-05-22T05:10:55;101068.47;;;22.24;84.36
42385;BME280;28042;43.986;22.860;2023-05-22T05:13:21;101082.06;;;21.94;84.20
42385;BME280;28042;43.986;22.860;2023-05-22T05:15:46;101083.34;;;22.08;83.62
42385;BME280;28042;43.986;22.860;2023-05-22T05:18:11;101093.34;;;22.09;83.45
42385;BME280;28042;43.986;22.860;2023-05-22T05:20:37;101087.19;;;21.53;86.33
42385;BME280;28042;43.986;22.860;2023-05-22T05:23:02;101091.47;;;21.17;88.79
42385;BME280;28042;43.986;22.860;2023-05-22T05:25:27;101088.22;;;20.59;92.92
42385;BME280;28042;43.986;22.860;2023-05-22T05:27:53;101086.13;;;19.99;100.00
42385;BME280;28042;43.986;22.860;2023-05-22T05:30:18;101101.44;;;19.73;100.00
42385;BME280;28042;43.986;22.860;2023-05-22T05:32:43;101093.41;;;19.32;100.00
42385;BME280;28042;43.986;22.860;2023-05-22T05:35:09;101098.88;;;19.15;100.00
42385;BME280;28042;43.986;22.860;2023-05-22T05:37:34;101105.88;;;19.06;100.00
42385;BME280;28042;43.986;22.860;2023-05-22T05:39:59;101106.28;;;18.86;100.00
42385;BME280;28042;43.986;22.860;2023-05-22T05:42:25;101105.31;;;18.57;100.00
42385;BME280;28042;43.986;22.860;2023-05-22T05:44:50;101107.34;;;18.50;100.00
42385;BME280;28042;43.986;22.860;2023-05-22T05:47:15;101104.38;;;18.51;100.00
42385;BME280;28042;43.986;22.860;2023-05-22T05:49:41;101110.34;;;18.48;100.00
42385;BME280;28042;43.986;22.860;2023-05-22T05:52:08;101108.06;;;18.57;100.00
42385;BME280;28042;43.986;22.860;2023-05-22T05:54:33;101100.88;;;18.56;100.00
42385;BME280;28042;43.986;22.860;2023-05-22T05:56:59;101104.25;;;18.34;100.00
42385;BME280;28042;43.986;22.860;2023-05-22T05:59:24;101107.34;;;18.26;100.00
42385;BME280;28042;43.986;22.860;2023-05-22T06:01:50;101108.09;;;18.33;100.00
42385;BME280;28042;43.986;22.860;2023-05-22T06:04:15;101108.81;;;18.52;100.00
42385;BME280;28042;43.986;22.860;2023-05-22T06:06:40;101109.63;;;18.64;100.00
42385;BME280;28042;43.986;22.860;2023-05-22T06:09:06;101102.56;;;18.80;100.00
42385;BME280;28042;43.986;22.860;2023-05-22T06:11:33;101103.91;;;18.78;100.00
42385;BME280;28042;43.986;22.860;2023-05-22T06:13:59;101114.69;;;18.68;100.00
42385;BME280;28042;43.986;22.860;2023-05-22T06:16:24;101105.19;;;18.75;100.00
42385;BME280;28042;43.986;22.860;2023-05-22T06:18:50;101113.13;;;18.60;100.00
42385;BME280;28042;43.986;22.860;2023-05-22T06:21:17;101112.53;;;18.46;100.00
42385;BME280;28042;43.986;22.860;2023-05-22T06:23:45;101116.97;;;18.35;100.00
42385;BME280;28042;43.986;22.860;2023-05-22T06:26:10;101117.81;;;18.24;100.00
42385;BME280;28042;43.986;22.860;2023-05-22T06:28:35;101120.91;;;18.28;100.00
42385;BME280;28042;43.986;22.860;2023-05-22T06:31:00;101113.59;;;18.33;100.00
42385;BME280;28042;43.986;22.860;2023-05-22T06:33:26;101115.03;;;18.48;100.00
42385;BME280;28042;43.986;22.860;2023-05-22T06:35:51;101115.56;;;18.68;100.00
42385;BME280;28042;43.986;22.860;2023-05-22T06:38:16;101108.09;;;18.80;100.00
42385;BME280;28042;43.986;22.860;2023-05-22T06:40:42;101115.16;;;18.64;100.00
42385;BME280;28042;43.986;22.860;2023-05-22T06:43:07;101119.72;;;18.59;100.00
42385;BME280;28042;43.986;22.860;2023-05-22T06:45:32;101116.72;;;18.60;100.00
42385;BME280;28042;43.986;22.860;2023-05-22T06:47:57;101121.03;;;18.56;100.00
42385;BME280;28042;43.986;22.860;2023-05-22T06:50:23;101117.25;;;18.69;100.00
42385;BME280;28042;43.986;22.860;2023-05-22T06:52:48;101119.25;;;18.97;100.00
42385;BME280;28042;43.986;22.860;2023-05-22T06:55:14;101119.75;;;18.82;100.00
42385;BME280;28042;43.986;22.860;2023-05-22T06:57:39;101124.66;;;18.80;100.00
42385;BME280;28042;43.986;22.860;2023-05-22T07:00:04;101132.22;;;18.97;100.00
42385;BME280;28042;43.986;22.860;2023-05-22T07:02:33;101130.44;;;18.90;100.00
42385;BME280;28042;43.986;22.860;2023-05-22T07:04:59;101128.97;;;19.00;100.00
42385;BME280;28042;43.986;22.860;2023-05-22T07:07:24;101131.38;;;18.61;100.00
42385;BME280;28042;43.986;22.860;2023-05-22T07:09:49;101125.25;;;18.82;100.00
42385;BME280;28042;43.986;22.860;2023-05-22T07:12:15;101122.72;;;19.04;100.00
42385;BME280;28042;43.986;22.860;2023-05-22T07:14:40;101121.50;;;19.12;100.00
42385;BME280;28042;43.986;22.860;2023-05-22T07:17:06;101125.88;;;19.36;100.00
42385;BME280;28042;43.986;22.860;2023-05-22T07:19:32;101127.50;;;19.09;100.00
42385;BME280;28042;43.986;22.860;2023-05-22T07:21:57;101125.97;;;19.41;100.00
42385;BME280;28042;43.986;22.860;2023-05-22T07:24:24;101123.09;;;19.76;100.00
42385;BME280;28042;43.986;22.860;2023-05-22T07:26:49;101123.19;;;19.82;100.00
42385;BME280;28042;43.986;22.860;2023-05-22T07:29:14;101110.81;;;20.18;100.00
42385;BME280;28042;43.986;22.860;2023-05-22T07:31:40;101110.03;;;20.39;100.00
42385;BME280;28042;43.986;22.860;2023-05-22T07:34:06;101098.28;;;20.66;100.00
42385;BME280;28042;43.986;22.860;2023-05-22T07:36:31;101098.13;;;20.55;100.00
42385;BME280;28042;43.986;22.860;2023-05-22T07:38:58;101099.63;;;20.63;100.00
42385;BME280;28042;43.986;22.860;2023-05-22T07:41:24;101095.19;;;20.84;100.00
42385;BME280;28042;43.986;22.860;2023-05-22T07:43:51;101101.88;;;21.05;100.00
42385;BME280;28042;43.986;22.860;2023-05-22T07:46:16;101093.22;;;21.23;99.27
42385;BME280;28042;43.986;22.860;2023-05-22T07:48:41;101091.50;;;21.39;94.92
42385;BME280;28042;43.986;22.860;2023-05-22T07:51:07;101091.22;;;21.18;91.08
42385;BME280;28042;43.986;22.860;2023-05-22T07:53:33;101096.97;;;20.90;93.14
42385;BME280;28042;43.986;22.860;2023-05-22T07:55:58;101060.28;;;20.66;96.06
42385;BME280;28042;43.986;22.860;2023-05-22T07:58:23;101097.03;;;20.95;99.38
42385;BME280;28042;43.986;22.860;2023-05-22T08:00:49;101104.06;;;21.25;93.25
42385;BME280;28042;43.986;22.860;2023-05-22T08:03:14;101102.59;;;21.39;90.83
42385;BME280;28042;43.986;22.860;2023-05-22T08:05:39;101095.06;;;21.61;89.99
42385;BME280;28042;43.986;22.860;2023-05-22T08:08:05;101104.03;;;21.68;84.73
42385;BME280;28042;43.986;22.860;2023-05-22T08:10:30;101093.09;;;21.84;84.10
42385;BME280;28042;43.986;22.860;2023-05-22T08:12:56;101089.38;;;22.05;83.38
42385;BME280;28042;43.986;22.860;2023-05-22T08:15:22;101093.56;;;22.35;86.38
42385;BME280;28042;43.986;22.860;2023-05-22T08:17:48;101097.56;;;22.54;79.87
42385;BME280;28042;43.986;22.860;2023-05-22T08:20:13;101093.28;;;22.36;76.29
42385;BME280;28042;43.986;22.860;2023-05-22T08:25:04;101080.63;;;22.98;72.35
42385;BME280;28042;43.986;22.860;2023-05-22T08:27:30;101086.22;;;23.03;69.64
42385;BME280;28042;43.986;22.860;2023-05-22T08:29:55;101089.56;;;23.10;68.01
42385;BME280;28042;43.986;22.860;2023-05-22T08:32:21;101088.00;;;23.29;66.36
42385;BME280;28042;43.986;22.860;2023-05-22T08:34:46;101091.13;;;22.86;60.53
42385;BME280;28042;43.986;22.860;2023-05-22T08:37:12;101088.69;;;22.57;63.14
42385;BME280;28042;43.986;22.860;2023-05-22T08:39:40;101087.72;;;22.83;62.10
42385;BME280;28042;43.986;22.860;2023-05-22T08:42:05;101092.22;;;22.84;63.45
42385;BME280;28042;43.986;22.860;2023-05-22T08:44:31;101079.72;;;22.87;61.32
42385;BME280;28042;43.986;22.860;2023-05-22T08:46:56;101089.59;;;23.15;63.88
42385;BME280;28042;43.986;22.860;2023-05-22T08:49:24;101095.72;;;23.12;57.96
42385;BME280;28042;43.986;22.860;2023-05-22T08:51:51;101090.16;;;23.17;58.63
42385;BME280;28042;43.986;22.860;2023-05-22T08:54:18;101102.44;;;23.26;60.56
42385;BME280;28042;43.986;22.860;2023-05-22T08:56:46;101098.81;;;22.73;57.23
42385;BME280;28042;43.986;22.860;2023-05-22T08:59:13;101099.47;;;22.86;60.64
42385;BME280;28042;43.986;22.860;2023-05-22T09:01:39;101087.09;;;23.19;58.56
42385;BME280;28042;43.986;22.860;2023-05-22T09:04:04;101097.19;;;23.35;55.57
42385;BME280;28042;43.986;22.860;2023-05-22T09:06:30;101092.34;;;23.10;58.07
42385;BME280;28042;43.986;22.860;2023-05-22T09:08:55;101090.66;;;23.04;58.75
42385;BME280;28042;43.986;22.860;2023-05-22T09:11:22;101092.34;;;23.05;54.61
42385;BME280;28042;43.986;22.860;2023-05-22T09:13:47;101090.25;;;23.37;56.84
42385;BME280;28042;43.986;22.860;2023-05-22T09:16:14;101091.59;;;23.35;53.77
42385;BME280;28042;43.986;22.860;2023-05-22T09:18:40;101089.75;;;22.93;58.67
42385;BME280;28042;43.986;22.860;2023-05-22T09:21:06;101089.56;;;23.10;57.47
42385;BME280;28042;43.986;22.860;2023-05-22T09:23:32;101087.94;;;23.19;57.34
42385;BME280;28042;43.986;22.860;2023-05-22T09:25:58;101086.94;;;23.46;56.97
42385;BME280;28042;43.986;22.860;2023-05-22T09:28:24;101082.44;;;23.39;56.06
42385;BME280;28042;43.986;22.860;2023-05-22T09:30:50;101085.97;;;23.15;56.62
42385;BME280;28042;43.986;22.860;2023-05-22T09:33:16;101086.25;;;23.18;57.19
42385;BME280;28042;43.986;22.860;2023-05-22T09:35:42;101088.81;;;23.30;59.44
42385;BME280;28042;43.986;22.860;2023-05-22T09:38:08;101086.44;;;23.79;57.80
42385;BME280;28042;43.986;22.860;2023-05-22T09:40:36;101079.75;;;23.80;58.32
42385;BME280;28042;43.986;22.860;2023-05-22T09:43:11;101087.31;;;24.31;58.08
42385;BME280;28042;43.986;22.860;2023-05-22T09:45:41;101084.25;;;24.52;56.28
42385;BME280;28042;43.986;22.860;2023-05-22T09:48:07;101075.88;;;24.52;53.94
42385;BME280;28042;43.986;22.860;2023-05-22T09:50:32;101076.41;;;24.65;54.55
42385;BME280;28042;43.986;22.860;2023-05-22T09:53:02;101077.59;;;24.33;55.40
42385;BME280;28042;43.986;22.860;2023-05-22T09:55:28;101070.00;;;24.49;57.33
42385;BME280;28042;43.986;22.860;2023-05-22T09:57:53;101073.09;;;24.52;56.41
42385;BME280;28042;43.986;22.860;2023-05-22T10:00:19;101072.56;;;24.35;56.66
42385;BME280;28042;43.986;22.860;2023-05-22T10:03:08;101068.38;;;24.43;57.79
42385;BME280;28042;43.986;22.860;2023-05-22T10:05:32;101072.25;;;23.81;56.18
42385;BME280;28042;43.986;22.860;2023-05-22T10:08:09;101065.19;;;23.42;62.00
42385;BME280;28042;43.986;22.860;2023-05-22T10:10:35;101069.66;;;23.49;61.88
42385;BME280;28042;43.986;22.860;2023-05-22T10:13:04;101070.25;;;23.56;58.58
42385;BME280;28042;43.986;22.860;2023-05-22T10:15:30;101065.41;;;23.26;62.80
42385;BME280;28042;43.986;22.860;2023-05-22T10:17:57;101067.91;;;23.22;61.93
42385;BME280;28042;43.986;22.860;2023-05-22T10:20:22;101059.34;;;23.39;62.55
42385;BME280;28042;43.986;22.860;2023-05-22T10:22:48;101059.13;;;23.66;62.13
42385;BME280;28042;43.986;22.860;2023-05-22T10:25:13;101069.19;;;24.03;59.40
42385;BME280;28042;43.986;22.860;2023-05-22T10:27:39;101058.34;;;23.81;57.60
42385;BME280;28042;43.986;22.860;2023-05-22T10:32:40;101054.72;;;24.01;58.82
42385;BME280;28042;43.986;22.860;2023-05-22T10:37:52;101049.13;;;24.11;56.21
42385;BME280;28042;43.986;22.860;2023-05-22T10:40:31;101054.88;;;23.53;58.25
42385;BME280;28042;43.986;22.860;2023-05-22T10:43:01;101047.66;;;23.37;58.94
42385;BME280;28042;43.986;22.860;2023-05-22T10:45:27;101049.13;;;23.75;58.82
42385;BME280;28042;43.986;22.860;2023-05-22T10:50:28;101036.25;;;24.56;55.11
42385;BME280;28042;43.986;22.860;2023-05-22T10:53:16;101029.88;;;24.24;52.90
42385;BME280;28042;43.986;22.860;2023-05-22T10:55:45;101028.44;;;23.51;56.45
42385;BME280;28042;43.986;22.860;2023-05-22T10:58:14;101026.56;;;23.82;56.70
42385;BME280;28042;43.986;22.860;2023-05-22T11:00:39;101025.16;;;24.05;55.85
42385;BME280;28042;43.986;22.860;2023-05-22T11:03:05;101025.72;;;23.76;52.85
42385;BME280;28042;43.986;22.860;2023-05-22T11:10:58;101002.81;;;24.50;53.97
42385;BME280;28042;43.986;22.860;2023-05-22T11:13:33;100999.94;;;24.66;54.31
42385;BME280;28042;43.986;22.860;2023-05-22T11:15:59;100989.75;;;25.00;52.41
42385;BME280;28042;43.986;22.860;2023-05-22T11:18:28;100995.19;;;24.76;50.94
42385;BME280;28042;43.986;22.860;2023-05-22T11:20:53;100989.81;;;24.90;51.95
42385;BME280;28042;43.986;22.860;2023-05-22T11:23:19;100984.34;;;25.24;53.34
42385;BME280;28042;43.986;22.860;2023-05-22T11:25:45;100984.78;;;25.42;52.59
42385;BME280;28042;43.986;22.860;2023-05-22T11:28:10;100980.75;;;24.59;51.28
42385;BME280;28042;43.986;22.860;2023-05-22T11:30:36;100985.25;;;24.40;53.12
42385;BME280;28042;43.986;22.860;2023-05-22T11:33:03;100992.22;;;24.37;54.35
42385;BME280;28042;43.986;22.860;2023-05-22T11:35:29;100983.78;;;24.63;54.77
42385;BME280;28042;43.986;22.860;2023-05-22T11:37:55;100984.91;;;24.62;51.81
42385;BME280;28042;43.986;22.860;2023-05-22T11:40:21;100983.56;;;24.39;51.43
42385;BME280;28042;43.986;22.860;2023-05-22T11:42:48;100984.38;;;24.49;51.71
42385;BME280;28042;43.986;22.860;2023-05-22T11:45:13;100981.00;;;24.68;52.01
42385;BME280;28042;43.986;22.860;2023-05-22T11:47:39;100981.50;;;24.75;50.88
42385;BME280;28042;43.986;22.860;2023-05-22T11:50:08;100972.25;;;24.85;50.86
42385;BME280;28042;43.986;22.860;2023-05-22T11:52:35;100971.50;;;24.69;53.54
42385;BME280;28042;43.986;22.860;2023-05-22T11:55:00;100964.97;;;24.89;54.17
42385;BME280;28042;43.986;22.860;2023-05-22T11:57:26;100965.81;;;24.84;53.06
42385;BME280;28042;43.986;22.860;2023-05-22T11:59:52;100964.03;;;25.14;51.89
42385;BME280;28042;43.986;22.860;2023-05-22T12:02:17;100962.13;;;24.99;53.05
42385;BME280;28042;43.986;22.860;2023-05-22T12:04:43;100958.22;;;25.05;53.94
42385;BME280;28042;43.986;22.860;2023-05-22T12:07:09;100956.72;;;25.18;52.71
42385;BME280;28042;43.986;22.860;2023-05-22T12:09:34;100952.78;;;25.29;51.23
42385;BME280;28042;43.986;22.860;2023-05-22T12:12:02;100951.50;;;25.45;50.63
42385;BME280;28042;43.986;22.860;2023-05-22T12:14:28;100943.59;;;25.23;50.83
42385;BME280;28042;43.986;22.860;2023-05-22T12:16:54;100944.53;;;25.48;51.66
42385;BME280;28042;43.986;22.860;2023-05-22T12:19:19;100939.88;;;25.72;51.17
42385;BME280;28042;43.986;22.860;2023-05-22T12:21:45;100930.97;;;25.65;52.28
42385;BME280;28042;43.986;22.860;2023-05-22T12:24:13;100934.09;;;25.92;51.30
42385;BME280;28042;43.986;22.860;2023-05-22T12:26:38;100926.56;;;25.88;51.34
42385;BME280;28042;43.986;22.860;2023-05-22T12:29:03;100919.69;;;25.80;50.33
42385;BME280;28042;43.986;22.860;2023-05-22T12:31:35;100920.31;;;25.72;49.71
42385;BME280;28042;43.986;22.860;2023-05-22T12:34:05;100921.00;;;25.20;50.13
42385;BME280;28042;43.986;22.860;2023-05-22T12:36:40;100917.28;;;24.85;50.11
42385;BME280;28042;43.986;22.860;2023-05-22T12:39:09;100916.50;;;25.19;48.34
42385;BME280;28042;43.986;22.860;2023-05-22T12:41:35;100914.78;;;25.28;49.70
42385;BME280;28042;43.986;22.860;2023-05-22T12:44:01;100905.41;;;25.48;50.05
42385;BME280;28042;43.986;22.860;2023-05-22T12:46:28;100909.25;;;25.23;51.37
42385;BME280;28042;43.986;22.860;2023-05-22T12:48:54;100903.25;;;25.69;50.17
42385;BME280;28042;43.986;22.860;2023-05-22T12:51:20;100897.66;;;25.74;49.36
42385;BME280;28042;43.986;22.860;2023-05-22T12:53:45;100898.03;;;25.91;49.04
42385;BME280;28042;43.986;22.860;2023-05-22T12:56:10;100897.81;;;26.11;49.19
42385;BME280;28042;43.986;22.860;2023-05-22T12:58:36;100897.13;;;26.25;48.36
42385;BME280;28042;43.986;22.860;2023-05-22T13:01:01;100886.41;;;26.08;46.74
42385;BME280;28042;43.986;22.860;2023-05-22T13:03:27;100889.38;;;26.16;47.70